createdAt,value
2023-05-15T00:01:14.738Z,108.68
2023-05-15T00:03:47.035Z,108.24
2023-05-15T00:06:20.174Z,117.39
2023-05-15T00:08:52.524Z,125.64
2023-05-15T00:11:28.132Z,124.92
2023-05-15T00:14:00.360Z,120.96
2023-05-15T00:16:33.296Z,128.36
2023-05-15T00:19:05.805Z,129.31
2023-05-15T00:21:40.600Z,131.23
2023-05-15T00:24:12.936Z,129.31
2023-05-15T00:26:47.834Z,130.33
2023-05-15T00:29:20.149Z,128.42
2023-05-15T00:31:52.475Z,124.20
2023-05-15T00:34:25.588Z,132.27
2023-05-15T00:36:57.915Z,131.25
2023-05-15T00:39:30.244Z,132.10
2023-05-15T00:42:06.570Z,134.17
2023-05-15T00:44:40.131Z,130.71
2023-05-15T00:47:15.164Z,136.49
2023-05-15T00:49:48.320Z,141.28
2023-05-15T00:52:21.478Z,143.01
2023-05-15T00:54:54.021Z,144.62
2023-05-15T00:57:32.581Z,146.66
2023-05-15T01:00:10.610Z,145.34
2023-05-15T01:02:43.598Z,139.89
2023-05-15T01:05:19.318Z,151.36
2023-05-15T01:08:00.505Z,148.19
2023-05-15T01:10:34.165Z,144.32
2023-05-15T01:13:11.213Z,144.26
2023-05-15T01:15:43.466Z,142.14
2023-05-15T01:18:15.933Z,151.71
2023-05-15T01:21:05.658Z,154.68
2023-05-15T01:23:51.677Z,149.69
2023-05-15T01:26:59.411Z,155.40
2023-05-15T01:29:41.602Z,152.43
2023-05-15T01:32:20.199Z,152.50
2023-05-15T01:35:09.807Z,155.13
2023-05-15T01:37:50.177Z,151.29
2023-05-15T01:40:27.446Z,147.89
2023-05-15T01:43:05.323Z,155.07
2023-05-15T01:45:43.537Z,156.17
2023-05-15T01:48:19.079Z,161.15
2023-05-15T01:50:55.546Z,156.89
2023-05-15T01:53:28.130Z,151.89
2023-05-15T01:56:02.299Z,160.31
2023-05-15T01:58:37.348Z,158.68
2023-05-15T02:01:14.289Z,157.07
2023-05-15T02:03:47.878Z,156.83
2023-05-15T02:06:21.183Z,155.09
2023-05-15T02:08:55.411Z,160.92
2023-05-15T02:11:27.652Z,161.49
2023-05-15T02:14:02.924Z,165.53
2023-05-15T02:16:37.999Z,171.16
2023-05-15T02:19:10.523Z,180.70
2023-05-15T02:21:42.907Z,178.93
2023-05-15T02:24:15.133Z,180.78
2023-05-15T02:26:57.927Z,180.88
2023-05-15T02:29:40.922Z,181.49
2023-05-15T02:32:24.483Z,179.89
2023-05-15T02:35:07.699Z,182.43
2023-05-15T02:37:43.604Z,183.87
2023-05-15T02:40:19.181Z,181.71
2023-05-15T02:42:53.329Z,185.14
2023-05-15T02:45:28.101Z,191.41
2023-05-15T02:48:05.259Z,194.01
2023-05-15T02:50:37.884Z,189.61
2023-05-15T02:53:11.216Z,191.91
2023-05-15T02:55:43.648Z,197.17
2023-05-15T02:58:16.470Z,202.13
2023-05-15T03:00:48.871Z,203.96
2023-05-15T03:03:23.700Z,205.95
2023-05-15T03:05:55.884Z,206.89
2023-05-15T03:08:28.381Z,206.39
2023-05-15T03:11:00.725Z,208.11
2023-05-15T03:13:32.984Z,212.18
2023-05-15T03:16:05.335Z,211.61
2023-05-15T03:18:40.345Z,208.56
2023-05-15T03:21:12.554Z,217.24
2023-05-15T03:23:44.727Z,214.05
2023-05-15T03:26:16.976Z,210.90
2023-05-15T03:28:52.064Z,214.32
2023-05-15T03:31:24.398Z,211.24
2023-05-15T03:33:59.285Z,214.38
2023-05-15T03:36:31.684Z,221.71
2023-05-15T03:39:04.617Z,215.55
2023-05-15T03:41:36.871Z,217.01
2023-05-15T03:44:10.713Z,214.80
2023-05-15T03:46:43.020Z,216.24
2023-05-15T03:49:18.037Z,210.72
2023-05-15T03:51:50.396Z,205.81
2023-05-15T03:54:22.717Z,195.59
2023-05-15T03:56:55.059Z,184.84
2023-05-15T03:59:27.306Z,189.68
2023-05-15T04:02:04.696Z,193.37
2023-05-15T04:04:40.404Z,193.36
2023-05-15T04:07:12.716Z,189.28
2023-05-15T04:09:45.064Z,197.39
2023-05-15T04:12:17.343Z,193.56
2023-05-15T04:14:49.588Z,184.88
2023-05-15T04:17:21.852Z,184.89
2023-05-15T04:19:56.712Z,183.04
2023-05-15T04:22:28.912Z,193.29
2023-05-15T04:25:01.175Z,182.52
2023-05-15T04:27:36.354Z,187.62
2023-05-15T04:30:09.922Z,180.80
2023-05-15T04:32:43.435Z,186.81
2023-05-15T04:35:18.356Z,186.42
2023-05-15T04:37:50.789Z,190.14
2023-05-15T04:40:23.176Z,192.04
2023-05-15T04:42:55.472Z,193.82
2023-05-15T04:45:30.453Z,195.65
2023-05-15T04:48:03.034Z,190.67
2023-05-15T04:50:37.924Z,183.78
2023-05-15T04:53:10.183Z,190.24
2023-05-15T04:55:42.603Z,202.89
2023-05-15T04:58:14.876Z,208.23
2023-05-15T05:00:47.152Z,221.19
2023-05-15T05:03:19.417Z,216.33
2023-05-15T05:05:54.312Z,216.88
2023-05-15T05:08:26.701Z,217.97
2023-05-15T05:11:01.979Z,213.80
2023-05-15T05:13:34.176Z,205.44
2023-05-15T05:16:06.501Z,202.93
2023-05-15T05:18:38.842Z,203.94
2023-05-15T05:21:13.709Z,205.06
2023-05-15T05:23:47.377Z,208.88
2023-05-15T05:26:22.494Z,211.61
2023-05-15T05:28:54.788Z,204.84
2023-05-15T05:31:27.204Z,202.74
2023-05-15T05:33:59.822Z,192.52
2023-05-15T05:36:34.950Z,192.62
2023-05-15T05:39:07.881Z,190.88
2023-05-15T05:41:40.266Z,189.95
2023-05-15T05:44:12.753Z,186.63
2023-05-15T05:46:45.570Z,187.78
2023-05-15T05:49:17.904Z,186.12
2023-05-15T05:51:52.894Z,192.66
2023-05-15T05:54:25.137Z,187.69
2023-05-15T05:56:57.417Z,194.49
2023-05-15T05:59:30.013Z,201.64
2023-05-15T06:02:02.453Z,200.37
2023-05-15T06:04:36.207Z,204.66
2023-05-15T06:07:11.258Z,203.48
2023-05-15T06:09:43.624Z,207.90
2023-05-15T06:12:15.913Z,209.74
2023-05-15T06:14:48.082Z,203.26
2023-05-15T06:17:20.297Z,206.83
2023-05-15T06:19:52.709Z,200.24
2023-05-15T06:22:28.487Z,199.49
2023-05-15T06:25:00.756Z,199.95
2023-05-15T06:27:33.181Z,201.75
2023-05-15T06:30:06.389Z,196.62
2023-05-15T06:32:38.693Z,192.86
2023-05-15T06:35:12.619Z,194.14
2023-05-15T06:37:50.375Z,197.39
2023-05-15T06:40:23.020Z,191.97
2023-05-15T06:42:55.673Z,186.10
2023-05-15T06:45:28.035Z,181.09
2023-05-15T06:48:02.043Z,191.89
2023-05-15T06:50:34.449Z,191.61
2023-05-15T06:53:09.262Z,185.99
2023-05-15T06:55:41.510Z,190.76
2023-05-15T06:58:13.791Z,189.81
2023-05-15T07:00:45.959Z,184.72
2023-05-15T07:03:18.298Z,184.16
2023-05-15T07:05:51.201Z,187.89
2023-05-15T07:08:26.153Z,187.23
2023-05-15T07:10:58.363Z,181.89
2023-05-15T07:13:30.743Z,179.80
2023-05-15T07:16:02.981Z,180.29
2023-05-15T07:18:36.356Z,181.36
2023-05-15T07:21:09.082Z,182.09
2023-05-15T07:23:44.001Z,180.66
2023-05-15T07:26:27.476Z,182.31
2023-05-15T07:29:04.970Z,181.53
2023-05-15T07:31:38.509Z,188.19
2023-05-15T07:34:10.899Z,182.74
2023-05-15T07:36:43.148Z,182.97
2023-05-15T07:39:18.115Z,179.69
2023-05-15T07:41:50.382Z,184.91
2023-05-15T07:44:22.564Z,185.09
2023-05-15T07:46:57.255Z,177.83
2023-05-15T07:49:29.691Z,183.94
2023-05-15T07:52:02.373Z,180.53
2023-05-15T07:54:37.221Z,176.44
2023-05-15T07:57:09.686Z,172.86
2023-05-15T07:59:42.019Z,190.96
2023-05-15T08:02:14.277Z,181.37
2023-05-15T08:04:46.515Z,182.32
2023-05-15T08:07:18.829Z,179.28
2023-05-15T08:09:53.711Z,176.51
2023-05-15T08:12:27.178Z,178.14
2023-05-15T08:15:00.749Z,181.18
2023-05-15T08:17:33.038Z,167.74
2023-05-15T08:20:05.264Z,160.72
2023-05-15T08:22:37.498Z,156.54
2023-05-15T08:25:13.346Z,152.40
2023-05-15T08:27:45.641Z,150.29
2023-05-15T08:30:18.672Z,153.30
2023-05-15T08:32:51.402Z,157.23
2023-05-15T08:35:23.842Z,157.18
2023-05-15T08:37:56.386Z,159.49
2023-05-15T08:40:38.956Z,157.56
2023-05-15T08:43:19.236Z,158.29
2023-05-15T08:45:52.959Z,159.38
2023-05-15T08:48:30.001Z,156.94
2023-05-15T08:51:03.773Z,158.59
2023-05-15T08:53:38.699Z,153.23
2023-05-15T08:56:14.259Z,160.39
2023-05-15T08:58:48.393Z,156.83
2023-05-15T09:01:21.159Z,162.76
2023-05-15T09:03:53.601Z,159.11
2023-05-15T09:06:28.379Z,158.88
2023-05-15T09:09:01.387Z,160.34
2023-05-15T09:11:36.959Z,160.84
2023-05-15T09:14:09.418Z,173.39
2023-05-15T09:16:41.920Z,165.92
2023-05-15T09:19:15.316Z,165.31
2023-05-15T09:21:47.633Z,166.27
2023-05-15T09:24:26.551Z,159.22
2023-05-15T09:27:12.204Z,150.15
2023-05-15T09:29:45.575Z,152.84
2023-05-15T09:32:19.447Z,150.08
2023-05-15T09:34:51.861Z,155.30
2023-05-15T09:37:34.825Z,152.38
2023-05-15T09:40:15.363Z,146.26
2023-05-15T09:42:56.113Z,146.72
2023-05-15T09:45:30.507Z,153.93
2023-05-15T09:48:08.500Z,165.99
2023-05-15T09:50:43.320Z,164.50
2023-05-15T09:53:21.432Z,162.25
2023-05-15T09:55:54.363Z,174.89
2023-05-15T09:58:29.319Z,189.71
2023-05-15T10:01:04.451Z,182.84
2023-05-15T10:03:36.741Z,177.59
2023-05-15T10:06:09.534Z,190.05
2023-05-15T10:08:45.355Z,202.80
2023-05-15T10:11:18.008Z,205.06
2023-05-15T10:13:53.252Z,212.31
2023-05-15T10:16:26.370Z,212.92
2023-05-15T10:19:04.936Z,222.50
2023-05-15T10:21:40.139Z,224.96
2023-05-15T10:24:13.068Z,234.79
2023-05-15T10:26:46.880Z,231.74
2023-05-15T10:29:25.551Z,239.30
2023-05-15T10:31:58.829Z,236.87
2023-05-15T10:34:32.696Z,242.27
2023-05-15T10:37:05.366Z,240.97
2023-05-15T10:39:43.076Z,250.11
2023-05-15T10:42:17.546Z,261.29
2023-05-15T10:44:54.272Z,269.08
2023-05-15T10:47:29.728Z,271.03
2023-05-15T10:50:02.492Z,271.09
2023-05-15T10:52:36.376Z,260.21
2023-05-15T10:55:11.679Z,266.27
2023-05-15T10:57:44.466Z,256.62
2023-05-15T11:00:34.301Z,253.64
2023-05-15T11:03:08.953Z,240.97
2023-05-15T11:06:12.409Z,236.46
2023-05-15T11:08:46.148Z,232.64
2023-05-15T11:12:02.649Z,228.17
2023-05-15T11:14:36.630Z,215.36
2023-05-15T11:17:15.673Z,208.85
2023-05-15T11:20:02.985Z,204.47
2023-05-15T11:22:39.012Z,194.38
2023-05-15T11:25:13.083Z,190.50
2023-05-15T11:27:47.435Z,188.89
2023-05-15T11:30:22.329Z,188.74
2023-05-15T11:33:01.092Z,190.21
2023-05-15T11:35:36.879Z,190.51
2023-05-15T11:38:16.704Z,186.13
2023-05-15T11:40:52.690Z,190.86
2023-05-15T11:43:26.533Z,187.46
2023-05-15T11:46:00.842Z,181.27
2023-05-15T11:48:40.045Z,183.97
2023-05-15T11:51:22.063Z,174.43
2023-05-15T11:53:56.719Z,179.76
2023-05-15T11:56:30.938Z,168.20
2023-05-15T11:59:05.146Z,164.35
2023-05-15T12:01:44.264Z,174.60
2023-05-15T12:04:20.818Z,167.35
2023-05-15T12:06:53.271Z,169.56
2023-05-15T12:09:27.692Z,166.81
2023-05-15T12:12:00.487Z,177.31
2023-05-15T12:14:34.786Z,171.17
2023-05-15T12:17:07.687Z,159.19
2023-05-15T12:19:43.937Z,159.13
2023-05-15T12:22:16.177Z,159.09
2023-05-15T12:24:48.703Z,153.74
2023-05-15T12:27:21.005Z,160.01
2023-05-15T12:29:54.676Z,156.94
2023-05-15T12:32:27.819Z,155.26
2023-05-15T12:35:05.827Z,149.74
2023-05-15T12:37:40.259Z,141.69
2023-05-15T12:40:14.990Z,142.24
2023-05-15T12:42:48.732Z,135.84
2023-05-15T12:45:23.606Z,135.97
2023-05-15T12:47:56.085Z,137.34
2023-05-15T12:50:34.006Z,127.04
2023-05-15T12:53:08.351Z,121.06
2023-05-15T12:55:43.760Z,117.66
2023-05-15T12:58:19.316Z,110.00
2023-05-15T13:00:51.772Z,110.70
2023-05-15T13:03:25.522Z,107.23
2023-05-15T13:06:00.685Z,102.43
2023-05-15T13:08:33.212Z,104.74
2023-05-15T13:11:05.586Z,104.61
2023-05-15T13:13:49.693Z,94.51
2023-05-15T13:16:32.051Z,96.10
2023-05-15T13:19:04.645Z,100.86
2023-05-15T13:21:39.930Z,94.09
2023-05-15T13:24:12.762Z,100.39
2023-05-15T13:26:45.273Z,99.17
2023-05-15T13:29:17.488Z,91.32
2023-05-15T13:31:49.747Z,88.00
2023-05-15T13:34:21.991Z,85.78
2023-05-15T13:36:56.771Z,97.84
2023-05-15T13:39:29.000Z,91.03
2023-05-15T13:42:01.724Z,107.46
2023-05-15T13:44:37.865Z,109.24
2023-05-15T13:47:10.656Z,109.89
2023-05-15T13:49:43.114Z,111.77
2023-05-15T13:52:18.099Z,109.88
2023-05-15T13:54:50.267Z,112.20
2023-05-15T13:57:22.829Z,121.38
2023-05-15T13:59:55.306Z,125.32
2023-05-15T14:02:28.812Z,127.25
2023-05-15T14:05:01.098Z,123.84
2023-05-15T14:07:35.915Z,121.26
2023-05-15T14:10:09.158Z,117.98
2023-05-15T14:12:42.657Z,121.35
2023-05-15T14:15:17.198Z,114.69
2023-05-15T14:17:50.830Z,111.43
2023-05-15T14:20:23.518Z,102.71
2023-05-15T14:22:58.508Z,104.16
2023-05-15T14:25:30.861Z,100.59
2023-05-15T14:28:04.520Z,91.28
2023-05-15T14:30:36.914Z,84.69
2023-05-15T14:33:09.232Z,85.25
2023-05-15T14:35:41.397Z,80.62
2023-05-15T14:38:16.264Z,81.39
2023-05-15T14:40:48.697Z,80.53
2023-05-15T14:43:21.072Z,86.12
2023-05-15T14:45:53.326Z,88.38
2023-05-15T14:48:25.744Z,88.19
2023-05-15T14:50:58.039Z,87.39
2023-05-15T14:53:32.954Z,87.88
2023-05-15T14:56:05.207Z,81.25
2023-05-15T14:58:37.559Z,78.53
2023-05-15T15:01:10.098Z,71.71
2023-05-15T15:03:42.818Z,73.42
2023-05-15T15:06:18.162Z,76.84
2023-05-15T15:08:53.130Z,76.39
2023-05-15T15:11:25.544Z,78.69
2023-05-15T15:14:11.869Z,80.79
2023-05-15T15:16:44.415Z,83.14
2023-05-15T15:19:19.754Z,86.69
2023-05-15T15:21:52.436Z,89.50
2023-05-15T15:24:29.401Z,88.36
2023-05-15T15:27:01.589Z,92.63
2023-05-15T15:29:34.065Z,89.33
2023-05-15T15:32:06.318Z,93.36
2023-05-15T15:34:38.761Z,86.51
2023-05-15T15:37:11.629Z,74.47
2023-05-15T15:39:46.688Z,69.89
2023-05-15T15:42:18.928Z,59.23
2023-05-15T15:44:51.145Z,58.07
2023-05-15T15:47:23.417Z,57.82
2023-05-15T15:49:56.094Z,58.25
2023-05-15T15:52:28.260Z,57.74
2023-05-15T15:55:03.020Z,54.79
2023-05-15T15:57:36.866Z,58.42
2023-05-15T16:00:11.018Z,60.22
2023-05-15T16:02:44.897Z,62.58
2023-05-15T16:05:17.167Z,66.18
2023-05-15T16:07:50.102Z,63.52
2023-05-15T16:10:27.412Z,65.34
2023-05-15T16:12:59.799Z,61.57
2023-05-15T16:15:32.017Z,64.59
2023-05-15T16:18:04.412Z,65.35
2023-05-15T16:20:36.682Z,62.99
2023-05-15T16:23:09.669Z,67.59
2023-05-15T16:25:44.480Z,69.33
2023-05-15T16:28:16.947Z,68.07
2023-05-15T16:30:51.182Z,66.39
2023-05-15T16:33:24.142Z,66.37
2023-05-15T16:35:59.322Z,63.61
2023-05-15T16:38:31.897Z,58.66
2023-05-15T16:41:06.645Z,53.26
2023-05-15T16:43:39.134Z,53.08
2023-05-15T16:46:12.315Z,57.70
2023-05-15T16:48:44.676Z,56.30
2023-05-15T16:51:16.945Z,55.58
2023-05-15T16:53:49.153Z,55.76
2023-05-15T16:56:24.427Z,55.20
2023-05-15T16:58:58.823Z,48.04
2023-05-15T17:01:31.171Z,46.67
2023-05-15T17:04:03.457Z,37.31
2023-05-15T17:06:37.554Z,29.71
2023-05-15T17:09:09.754Z,27.07
2023-05-15T17:11:45.246Z,25.19
2023-05-15T17:14:17.501Z,20.71
2023-05-15T17:16:49.645Z,20.08
2023-05-15T17:19:22.021Z,20.14
2023-05-15T17:21:54.281Z,19.01
2023-05-15T17:24:32.866Z,17.29
2023-05-15T17:27:18.510Z,18.51
2023-05-15T17:29:51.200Z,18.16
2023-05-15T17:32:26.286Z,18.94
2023-05-15T17:34:58.545Z,18.61
2023-05-15T17:37:30.832Z,17.70
2023-05-15T17:40:04.270Z,17.91
2023-05-15T17:42:39.241Z,17.79
2023-05-15T17:45:12.701Z,18.95
2023-05-15T17:47:44.933Z,19.54
2023-05-15T17:50:17.106Z,21.65
2023-05-15T17:52:49.287Z,21.36
2023-05-15T17:55:21.691Z,20.98
2023-05-15T17:57:56.883Z,22.34
2023-05-15T18:00:29.161Z,21.21
2023-05-15T18:03:01.750Z,21.23
2023-05-15T18:05:33.999Z,22.60
2023-05-15T18:08:08.094Z,22.79
2023-05-15T18:10:40.238Z,22.79
2023-05-15T18:13:15.038Z,23.99
2023-05-15T18:15:47.273Z,26.36
2023-05-15T18:18:19.461Z,24.33
2023-05-15T18:20:51.848Z,26.64
2023-05-15T18:23:27.062Z,26.10
2023-05-15T18:26:00.650Z,24.84
2023-05-15T18:28:35.485Z,24.43
2023-05-15T18:31:07.727Z,24.62
2023-05-15T18:33:40.829Z,22.75
2023-05-15T18:36:13.227Z,23.64
2023-05-15T18:38:45.470Z,21.44
2023-05-15T18:41:17.723Z,19.95
2023-05-15T18:43:55.769Z,19.97
2023-05-15T18:46:28.644Z,18.90
2023-05-15T18:49:01.124Z,18.64
2023-05-15T18:51:33.360Z,19.04
2023-05-15T18:54:05.552Z,18.84
2023-05-15T18:56:37.832Z,16.29
2023-05-15T18:59:13.842Z,16.41
2023-05-15T19:01:46.491Z,15.65
2023-05-15T19:04:19.012Z,14.83
2023-05-15T19:06:53.392Z,15.58
2023-05-15T19:09:25.805Z,15.69
2023-05-15T19:12:01.487Z,14.57
2023-05-15T19:14:38.535Z,14.16
2023-05-15T19:17:10.839Z,14.56
2023-05-15T19:19:45.452Z,11.71
2023-05-15T19:22:18.115Z,10.35
2023-05-15T19:24:50.783Z,10.25
2023-05-15T19:27:22.957Z,9.85
2023-05-15T19:29:57.983Z,9.06
2023-05-15T19:32:30.971Z,8.13
2023-05-15T19:35:03.397Z,8.31
2023-05-15T19:37:36.726Z,7.56
2023-05-15T19:40:10.159Z,7.54
2023-05-15T19:42:42.316Z,8.21
2023-05-15T19:45:17.336Z,7.11
2023-05-15T19:47:49.664Z,7.76
2023-05-15T19:50:26.248Z,9.51
2023-05-15T19:52:58.539Z,9.32
2023-05-15T19:55:30.728Z,10.16
2023-05-15T19:58:03.034Z,9.26
2023-05-15T20:00:37.888Z,10.33
2023-05-15T20:03:10.274Z,10.31
2023-05-15T20:05:44.076Z,12.32
2023-05-15T20:08:17.349Z,11.39
2023-05-15T20:10:55.123Z,13.40
2023-05-15T20:13:27.815Z,10.78
2023-05-15T20:16:09.326Z,11.69
2023-05-15T20:18:42.882Z,12.26
2023-05-15T20:21:15.277Z,13.93
2023-05-15T20:23:49.208Z,14.65
2023-05-15T20:26:22.529Z,13.16
2023-05-15T20:28:57.700Z,13.27
2023-05-15T20:31:32.640Z,11.86
2023-05-15T20:34:05.975Z,12.59
2023-05-15T20:36:39.061Z,13.35
2023-05-15T20:39:11.678Z,13.11
2023-05-15T20:41:43.825Z,13.06
2023-05-15T20:44:15.999Z,13.47
2023-05-15T20:46:50.782Z,13.34
2023-05-15T20:49:23.037Z,12.60
2023-05-15T20:51:55.204Z,13.56
2023-05-15T20:54:27.430Z,13.98
2023-05-15T20:56:59.747Z,13.74
2023-05-15T20:59:32.151Z,15.67
2023-05-15T21:02:09.305Z,14.00
2023-05-15T21:04:41.597Z,16.02
2023-05-15T21:07:14.150Z,14.47
2023-05-15T21:09:46.565Z,14.59
2023-05-15T21:12:18.784Z,15.71
2023-05-15T21:14:50.936Z,14.96
2023-05-15T21:17:27.159Z,16.15
2023-05-15T21:20:02.089Z,15.64
2023-05-15T21:22:34.474Z,16.99
2023-05-15T21:25:07.038Z,17.98
2023-05-15T21:27:39.300Z,18.73
2023-05-15T21:30:12.907Z,19.26
2023-05-15T21:32:47.799Z,18.42
2023-05-15T21:35:20.250Z,20.54
2023-05-15T21:37:52.681Z,21.30
2023-05-15T21:40:26.153Z,19.53
2023-05-15T21:42:58.479Z,19.97
2023-05-15T21:45:30.692Z,20.14
2023-05-15T21:48:05.709Z,19.88
2023-05-15T21:50:37.947Z,20.95
2023-05-15T21:53:10.252Z,23.09
2023-05-15T21:55:42.653Z,22.39
2023-05-15T21:58:14.920Z,21.29
2023-05-15T22:00:47.110Z,20.58
2023-05-15T22:03:22.806Z,21.81
2023-05-15T22:05:55.217Z,20.00
2023-05-15T22:08:27.529Z,21.89
2023-05-15T22:10:59.876Z,21.00
2023-05-15T22:13:32.102Z,21.85
2023-05-15T22:16:04.353Z,22.31
2023-05-15T22:18:39.919Z,20.89
2023-05-15T22:21:13.138Z,22.82
2023-05-15T22:23:45.865Z,20.61
2023-05-15T22:26:19.882Z,21.16
2023-05-15T22:28:57.720Z,22.68
2023-05-15T22:31:29.970Z,21.13
2023-05-15T22:34:04.773Z,21.36
2023-05-15T22:36:37.129Z,20.36
2023-05-15T22:39:09.617Z,20.02
2023-05-15T22:41:41.835Z,20.40
2023-05-15T22:44:14.044Z,21.34
2023-05-15T22:46:46.596Z,21.98
2023-05-15T22:49:25.664Z,20.81
2023-05-15T22:51:59.531Z,21.97
2023-05-15T22:54:31.770Z,21.41
2023-05-15T22:57:03.995Z,20.99
2023-05-15T22:59:36.592Z,20.97
2023-05-15T23:02:08.978Z,21.21
2023-05-15T23:04:43.722Z,19.15
2023-05-15T23:07:17.405Z,19.96
2023-05-15T23:09:49.610Z,19.71
2023-05-15T23:12:22.013Z,18.59
2023-05-15T23:14:54.245Z,18.11
2023-05-15T23:17:26.720Z,17.72
2023-05-15T23:20:01.906Z,18.59
2023-05-15T23:22:34.089Z,18.31
2023-05-15T23:25:06.813Z,16.97
2023-05-15T23:27:39.013Z,18.03
2023-05-15T23:30:12.782Z,16.61
2023-05-15T23:32:44.989Z,15.88
2023-05-15T23:35:19.769Z,17.44
2023-05-15T23:37:52.061Z,16.06
2023-05-15T23:40:27.011Z,15.29
2023-05-15T23:42:59.371Z,15.02
2023-05-15T23:45:31.498Z,16.03
2023-05-15T23:48:03.860Z,15.85
2023-05-15T23:50:38.671Z,16.95
2023-05-15T23:53:11.107Z,15.99
2023-05-15T23:55:43.323Z,14.81
2023-05-15T23:58:15.570Z,17.68
